createdAt,value
2019-06-15T00:00:35.745Z,99.90
2019-06-15T00:03:10.500Z,99.90
2019-06-15T00:05:48.287Z,99.90
2019-06-15T00:08:27.000Z,99.90
2019-06-15T00:11:08.646Z,99.90
2019-06-15T00:13:47.163Z,99.90
2019-06-15T00:16:22.194Z,99.90
2019-06-15T00:18:59.503Z,99.90
2019-06-15T00:21:36.302Z,99.90
2019-06-15T00:24:10.908Z,99.90
2019-06-15T00:26:45.759Z,99.90
2019-06-15T00:29:22.367Z,99.90
2019-06-15T00:31:58.760Z,99.90
2019-06-15T00:34:35.808Z,99.90
2019-06-15T00:37:11.018Z,99.90
2019-06-15T00:39:44.633Z,99.90
2019-06-15T00:42:21.742Z,99.90
2019-06-15T00:44:56.616Z,99.90
2019-06-15T00:47:32.539Z,99.90
2019-06-15T00:50:09.352Z,99.90
2019-06-15T00:52:44.702Z,99.90
2019-06-15T00:55:21.065Z,99.90
2019-06-15T00:57:58.580Z,99.90
2019-06-15T01:00:34.516Z,99.90
2019-06-15T01:03:10.508Z,99.90
2019-06-15T01:05:47.719Z,99.90
2019-06-15T01:08:27.497Z,99.90
2019-06-15T01:11:01.668Z,99.90
2019-06-15T01:13:38.694Z,99.90
2019-06-15T01:16:15.325Z,99.90
2019-06-15T01:18:49.552Z,99.90
2019-06-15T01:21:44.877Z,99.90
2019-06-15T01:24:19.582Z,99.90
2019-06-15T01:27:00.264Z,99.90
2019-06-15T01:29:37.224Z,99.90
2019-06-15T01:32:12.715Z,99.90
2019-06-15T01:34:51.742Z,99.90
2019-06-15T01:37:26.277Z,99.90
2019-06-15T01:40:02.071Z,99.90
2019-06-15T01:42:38.306Z,99.90
2019-06-15T01:45:15.408Z,99.90
2019-06-15T01:47:51.524Z,99.90
2019-06-15T01:50:25.721Z,99.90
2019-06-15T01:53:00.481Z,99.90
2019-06-15T01:55:36.956Z,99.90
2019-06-15T01:58:11.496Z,99.90
2019-06-15T02:00:49.553Z,99.90
2019-06-15T02:03:23.393Z,99.90
2019-06-15T02:05:59.989Z,99.90
2019-06-15T02:08:35.625Z,99.90
2019-06-15T02:11:08.557Z,99.90
2019-06-15T02:13:48.445Z,99.90
2019-06-15T02:16:22.964Z,99.90
2019-06-15T02:18:57.930Z,99.90
2019-06-15T02:21:31.792Z,99.90
2019-06-15T02:24:07.156Z,99.90
2019-06-15T02:26:41.121Z,99.90
2019-06-15T02:29:15.189Z,99.90
2019-06-15T02:31:51.679Z,99.90
2019-06-15T02:34:29.349Z,99.90
2019-06-15T02:37:07.023Z,99.90
2019-06-15T02:39:44.747Z,99.90
2019-06-15T02:42:20.263Z,99.90
2019-06-15T02:44:54.397Z,99.90
2019-06-15T02:47:28.603Z,99.90
2019-06-15T02:50:03.846Z,99.90
2019-06-15T02:52:37.970Z,99.90
2019-06-15T02:55:13.420Z,99.90
2019-06-15T02:57:49.615Z,99.90
2019-06-15T03:00:41.345Z,99.90
2019-06-15T03:03:16.552Z,99.90
2019-06-15T03:05:53.258Z,99.90
2019-06-15T03:08:31.502Z,99.90
2019-06-15T03:11:06.975Z,99.90
2019-06-15T03:13:45.532Z,99.90
2019-06-15T03:16:22.511Z,99.90
2019-06-15T03:18:57.285Z,99.90
2019-06-15T03:21:30.170Z,99.90
2019-06-15T03:24:02.935Z,99.90
2019-06-15T03:26:36.097Z,99.90
2019-06-15T03:29:09.005Z,99.90
2019-06-15T03:31:42.061Z,99.90
2019-06-15T03:34:15.101Z,99.90
2019-06-15T03:36:48.236Z,99.90
2019-06-15T03:39:21.153Z,99.90
2019-06-15T03:42:15.482Z,99.90
2019-06-15T03:44:48.910Z,99.90
2019-06-15T03:47:22.046Z,99.90
2019-06-15T03:49:56.289Z,99.90
2019-06-15T03:52:29.985Z,99.90
2019-06-15T03:55:03.262Z,99.90
2019-06-15T03:57:36.420Z,99.90
2019-06-15T04:00:47.310Z,99.90
2019-06-15T04:03:40.455Z,99.90
2019-06-15T04:06:13.750Z,99.90
2019-06-15T04:08:46.940Z,99.90
2019-06-15T04:11:19.935Z,99.90
2019-06-15T04:13:52.851Z,99.90
2019-06-15T04:16:25.925Z,99.90
2019-06-15T04:18:59.836Z,99.90
2019-06-15T04:21:34.512Z,99.90
2019-06-15T04:24:08.057Z,99.90
2019-06-15T04:26:41.168Z,99.90
2019-06-15T04:29:14.548Z,99.90
2019-06-15T04:31:47.671Z,99.90
2019-06-15T04:34:20.751Z,99.90
2019-06-15T04:36:53.968Z,99.90
2019-06-15T04:39:27.045Z,99.90
2019-06-15T04:42:00.233Z,99.90
2019-06-15T04:44:34.965Z,99.90
2019-06-15T04:47:09.838Z,99.90
2019-06-15T04:49:43.116Z,99.90
2019-06-15T04:52:16.947Z,99.90
2019-06-15T04:54:50.213Z,99.90
2019-06-15T04:57:23.085Z,99.90
2019-06-15T04:59:56.163Z,99.90
2019-06-15T05:02:29.521Z,99.90
2019-06-15T05:05:02.403Z,99.90
2019-06-15T05:07:54.444Z,99.90
2019-06-15T05:10:27.759Z,99.90
2019-06-15T05:13:00.926Z,99.90
2019-06-15T05:15:34.270Z,99.90
2019-06-15T05:18:07.414Z,99.90
2019-06-15T05:20:40.359Z,99.90
2019-06-15T05:23:13.618Z,99.90
2019-06-15T05:25:47.192Z,99.90
2019-06-15T05:28:20.399Z,99.90
2019-06-15T05:30:53.723Z,99.90
2019-06-15T05:33:27.030Z,99.90
2019-06-15T05:36:00.285Z,99.90
2019-06-15T05:38:33.207Z,99.90
2019-06-15T05:41:06.687Z,99.90
2019-06-15T05:43:39.731Z,99.90
2019-06-15T05:46:13.283Z,99.90
2019-06-15T05:48:46.326Z,99.90
2019-06-15T05:51:19.581Z,99.90
2019-06-15T05:53:52.584Z,99.90
2019-06-15T05:56:25.759Z,99.90
2019-06-15T05:58:59.148Z,99.90
2019-06-15T06:01:31.990Z,99.90
2019-06-15T06:04:05.040Z,99.90
2019-06-15T06:06:38.469Z,99.90
2019-06-15T06:09:11.631Z,99.90
2019-06-15T06:11:44.818Z,99.90
2019-06-15T06:14:19.053Z,99.90
2019-06-15T06:16:52.108Z,99.90
2019-06-15T06:19:25.635Z,99.90
2019-06-15T06:21:58.665Z,99.90
2019-06-15T06:24:32.219Z,99.90
2019-06-15T06:27:05.545Z,99.90
2019-06-15T06:29:38.553Z,99.90
2019-06-15T06:32:11.718Z,99.90
2019-06-15T06:34:45.483Z,99.90
2019-06-15T06:37:18.740Z,99.90
2019-06-15T06:39:52.307Z,99.90
2019-06-15T06:42:25.209Z,99.50
2019-06-15T06:44:58.598Z,99.30
2019-06-15T06:47:31.800Z,99.70
2019-06-15T06:50:05.077Z,99.90
2019-06-15T06:52:38.336Z,99.50
2019-06-15T06:55:11.967Z,99.10
2019-06-15T06:57:52.647Z,97.40
2019-06-15T07:00:20.427Z,96.30
2019-06-15T07:02:53.612Z,94.60
2019-06-15T07:05:27.418Z,95.40
2019-06-15T07:08:00.868Z,95.50
2019-06-15T07:10:34.135Z,92.50
2019-06-15T07:13:07.407Z,92.90
2019-06-15T07:15:40.734Z,92.90
2019-06-15T07:18:13.754Z,92.50
2019-06-15T07:20:46.923Z,92.30
2019-06-15T07:23:20.163Z,93.10
2019-06-15T07:25:54.322Z,92.80
2019-06-15T07:28:27.230Z,93.10
2019-06-15T07:31:00.896Z,93.40
2019-06-15T07:33:34.003Z,93.80
2019-06-15T07:36:07.625Z,92.70
2019-06-15T07:38:40.869Z,92.10
2019-06-15T07:41:13.992Z,92.20
2019-06-15T07:43:47.241Z,92.00
2019-06-15T07:46:20.334Z,91.30
2019-06-15T07:48:53.728Z,91.10
2019-06-15T07:51:26.623Z,91.80
2019-06-15T07:53:59.664Z,91.50
2019-06-15T07:56:32.804Z,91.30
2019-06-15T07:59:06.305Z,90.10
2019-06-15T08:01:39.403Z,88.00
2019-06-15T08:04:12.503Z,88.90
2019-06-15T08:06:48.308Z,88.20
2019-06-15T08:09:21.761Z,89.40
2019-06-15T08:12:17.892Z,86.30
2019-06-15T08:14:54.043Z,88.50
2019-06-15T08:17:30.433Z,87.50
2019-06-15T08:20:13.935Z,85.00
2019-06-15T08:22:50.825Z,80.70
2019-06-15T08:25:28.547Z,84.70
2019-06-15T08:28:04.214Z,80.10
2019-06-15T08:30:54.705Z,75.40
2019-06-15T08:33:28.179Z,76.50
2019-06-15T08:36:04.625Z,73.90
2019-06-15T08:38:40.462Z,72.50
2019-06-15T08:41:16.834Z,73.10
2019-06-15T08:43:53.860Z,71.20
2019-06-15T08:46:29.728Z,70.60
2019-06-15T08:49:06.142Z,68.50
2019-06-15T08:51:44.523Z,66.80
2019-06-15T08:54:22.612Z,67.60
2019-06-15T08:56:59.888Z,67.90
2019-06-15T08:59:38.690Z,64.80
2019-06-15T09:02:14.520Z,66.80
2019-06-15T09:04:48.340Z,70.50
2019-06-15T09:07:26.747Z,66.80
2019-06-15T09:10:06.129Z,61.80
2019-06-15T09:12:44.554Z,58.90
2019-06-15T09:15:26.211Z,58.80
2019-06-15T09:18:03.641Z,60.40
2019-06-15T09:20:40.277Z,58.30
2019-06-15T09:23:16.528Z,59.40
2019-06-15T09:25:55.772Z,59.20
2019-06-15T09:28:31.883Z,59.20
2019-06-15T09:31:07.569Z,58.30
2019-06-15T09:33:45.781Z,59.00
2019-06-15T09:36:22.369Z,56.50
2019-06-15T09:38:57.969Z,59.00
2019-06-15T09:41:45.352Z,56.20
2019-06-15T09:44:20.653Z,57.10
2019-06-15T09:46:57.228Z,57.30
2019-06-15T09:49:34.592Z,57.90
2019-06-15T09:52:09.843Z,54.50
2019-06-15T09:54:43.184Z,55.60
2019-06-15T09:57:16.450Z,57.00
2019-06-15T09:59:49.582Z,56.10
2019-06-15T10:02:22.740Z,56.40
2019-06-15T10:04:56.075Z,55.80
2019-06-15T10:07:29.384Z,55.40
2019-06-15T10:10:03.854Z,55.00
2019-06-15T10:12:36.994Z,55.30
2019-06-15T10:15:11.154Z,54.70
2019-06-15T10:17:44.571Z,56.70
2019-06-15T10:20:20.158Z,57.30
2019-06-15T10:22:53.284Z,54.50
2019-06-15T10:25:26.508Z,56.20
2019-06-15T10:28:01.184Z,53.60
2019-06-15T10:30:34.505Z,55.50
2019-06-15T10:33:07.695Z,55.00
2019-06-15T10:35:40.684Z,57.60
2019-06-15T10:38:13.686Z,54.70
2019-06-15T10:40:46.836Z,55.10
2019-06-15T10:43:20.085Z,55.40
2019-06-15T10:45:53.511Z,56.70
2019-06-15T10:48:26.874Z,54.20
2019-06-15T10:50:59.968Z,54.70
2019-06-15T10:53:33.063Z,54.60
2019-06-15T10:56:06.097Z,58.80
2019-06-15T10:58:39.544Z,57.70
2019-06-15T11:01:12.407Z,54.30
2019-06-15T11:03:45.485Z,57.00
2019-06-15T11:06:18.727Z,54.80
2019-06-15T11:08:52.038Z,56.50
2019-06-15T11:11:25.632Z,54.30
2019-06-15T11:14:00.555Z,55.50
2019-06-15T11:16:33.767Z,55.40
2019-06-15T11:19:06.955Z,57.10
2019-06-15T11:21:40.225Z,58.00
2019-06-15T11:24:14.025Z,56.20
2019-06-15T11:26:47.238Z,54.30
2019-06-15T11:29:20.881Z,55.30
2019-06-15T11:31:54.256Z,56.00
2019-06-15T11:34:27.426Z,56.90
2019-06-15T11:37:00.629Z,55.80
2019-06-15T11:39:33.821Z,58.00
2019-06-15T11:42:07.146Z,57.70
2019-06-15T11:44:40.469Z,57.70
2019-06-15T11:47:13.728Z,58.30
2019-06-15T11:49:46.919Z,55.20
2019-06-15T11:52:20.004Z,56.90
2019-06-15T11:54:53.128Z,57.80
2019-06-15T11:57:26.244Z,58.00
2019-06-15T11:59:59.541Z,55.60
2019-06-15T12:02:32.793Z,56.90
2019-06-15T12:05:06.144Z,54.90
2019-06-15T12:07:39.305Z,56.20
2019-06-15T12:10:12.637Z,54.30
2019-06-15T12:12:45.965Z,54.50
2019-06-15T12:15:19.101Z,52.60
2019-06-15T12:17:52.086Z,52.80
2019-06-15T12:20:25.367Z,53.40
2019-06-15T12:22:58.502Z,54.50
2019-06-15T12:25:31.674Z,52.20
2019-06-15T12:28:05.036Z,51.30
2019-06-15T12:30:47.088Z,52.60
2019-06-15T12:33:15.871Z,54.90
2019-06-15T12:35:49.586Z,55.70
2019-06-15T12:38:22.902Z,54.10
2019-06-15T12:40:56.308Z,55.80
2019-06-15T12:43:29.863Z,57.70
2019-06-15T12:46:03.615Z,54.90
2019-06-15T12:48:36.481Z,55.50
2019-06-15T12:51:09.662Z,54.10
2019-06-15T12:53:43.322Z,53.10
2019-06-15T12:56:16.742Z,54.30
2019-06-15T12:58:49.986Z,55.40
2019-06-15T13:01:24.626Z,54.60
2019-06-15T13:03:57.812Z,55.40
2019-06-15T13:06:30.967Z,54.10
2019-06-15T13:09:04.064Z,53.70
2019-06-15T13:11:37.230Z,54.70
2019-06-15T13:14:10.597Z,55.50
2019-06-15T13:16:43.620Z,54.80
2019-06-15T13:19:16.718Z,57.20
2019-06-15T13:21:50.075Z,55.90
2019-06-15T13:24:23.256Z,55.70
2019-06-15T13:26:57.354Z,53.10
2019-06-15T13:29:30.762Z,54.00
2019-06-15T13:32:03.673Z,54.70
2019-06-15T13:34:37.139Z,56.30
2019-06-15T13:37:10.707Z,54.60
2019-06-15T13:39:43.980Z,55.70
2019-06-15T13:42:17.200Z,55.00
2019-06-15T13:44:50.288Z,54.30
2019-06-15T13:47:23.679Z,53.10
2019-06-15T13:49:57.947Z,53.90
2019-06-15T13:52:31.397Z,55.30
2019-06-15T13:55:05.204Z,54.80
2019-06-15T13:57:41.436Z,53.70
2019-06-15T14:00:16.764Z,53.50
2019-06-15T14:02:49.829Z,54.20
2019-06-15T14:05:43.131Z,56.00
2019-06-15T14:08:16.717Z,57.50
2019-06-15T14:10:50.436Z,55.90
2019-06-15T14:13:23.608Z,53.90
2019-06-15T14:15:57.174Z,55.30
2019-06-15T14:18:31.388Z,55.00
2019-06-15T14:21:04.416Z,54.00
2019-06-15T14:23:37.649Z,54.20
2019-06-15T14:26:11.525Z,54.90
2019-06-15T14:28:45.143Z,57.00
2019-06-15T14:31:18.725Z,57.60
2019-06-15T14:33:52.050Z,55.30
2019-06-15T14:36:25.340Z,56.40
2019-06-15T14:38:58.289Z,55.20
2019-06-15T14:41:31.793Z,55.20
2019-06-15T14:44:05.224Z,52.30
2019-06-15T14:46:38.553Z,53.30
2019-06-15T14:49:11.952Z,53.50
2019-06-15T14:51:45.051Z,53.60
2019-06-15T14:54:18.284Z,53.20
2019-06-15T14:56:51.907Z,52.30
2019-06-15T14:59:26.519Z,52.90
2019-06-15T15:02:10.015Z,52.30
2019-06-15T15:04:36.771Z,53.00
2019-06-15T15:07:09.762Z,53.60
2019-06-15T15:09:43.092Z,53.30
2019-06-15T15:12:16.673Z,51.90
2019-06-15T15:14:50.119Z,51.80
2019-06-15T15:17:26.564Z,54.20
2019-06-15T15:19:58.595Z,54.90
2019-06-15T15:22:32.294Z,53.80
2019-06-15T15:25:06.497Z,55.40
2019-06-15T15:27:39.889Z,54.60
2019-06-15T15:30:16.505Z,54.60
2019-06-15T15:32:49.648Z,54.70
2019-06-15T15:35:22.771Z,56.00
2019-06-15T15:37:56.780Z,56.00
2019-06-15T15:40:30.008Z,55.90
2019-06-15T15:43:03.444Z,57.00
2019-06-15T15:45:37.248Z,57.70
2019-06-15T15:48:10.402Z,59.30
2019-06-15T15:50:44.062Z,58.10
2019-06-15T15:53:17.393Z,59.20
2019-06-15T15:55:50.476Z,58.30
2019-06-15T15:58:23.732Z,58.50
2019-06-15T16:00:57.253Z,58.80
2019-06-15T16:03:30.746Z,60.80
2019-06-15T16:06:04.004Z,59.60
2019-06-15T16:08:37.623Z,59.00
2019-06-15T16:11:10.913Z,59.10
2019-06-15T16:13:46.184Z,58.40
2019-06-15T16:16:19.700Z,58.40
2019-06-15T16:18:55.978Z,59.00
2019-06-15T16:21:39.165Z,59.00
2019-06-15T16:24:12.201Z,60.40
2019-06-15T16:26:46.661Z,60.90
2019-06-15T16:29:20.064Z,60.50
2019-06-15T16:31:52.844Z,60.80
2019-06-15T16:34:26.996Z,60.60
2019-06-15T16:37:00.149Z,61.30
2019-06-15T16:39:33.110Z,61.60
2019-06-15T16:42:06.659Z,61.10
2019-06-15T16:44:39.865Z,59.60
2019-06-15T16:47:13.163Z,60.40
2019-06-15T16:49:46.720Z,61.70
2019-06-15T16:52:20.440Z,62.40
2019-06-15T16:54:53.744Z,61.80
2019-06-15T16:57:26.997Z,62.20
2019-06-15T17:00:00.042Z,62.00
2019-06-15T17:02:33.183Z,61.80
2019-06-15T17:05:06.701Z,62.60
2019-06-15T17:07:40.190Z,63.40
2019-06-15T17:10:16.740Z,63.30
2019-06-15T17:12:48.136Z,62.50
2019-06-15T17:15:21.471Z,60.20
2019-06-15T17:17:56.324Z,59.70
2019-06-15T17:20:36.112Z,60.30
2019-06-15T17:23:10.527Z,60.30
2019-06-15T17:25:43.729Z,60.90
2019-06-15T17:28:17.157Z,61.40
2019-06-15T17:30:50.139Z,62.60
2019-06-15T17:33:34.326Z,62.70
2019-06-15T17:36:02.770Z,62.50
2019-06-15T17:38:33.190Z,62.90
2019-06-15T17:41:08.627Z,63.00
2019-06-15T17:43:41.684Z,63.10
2019-06-15T17:46:16.480Z,63.80
2019-06-15T17:48:49.312Z,64.40
2019-06-15T17:51:22.497Z,65.30
2019-06-15T17:53:56.385Z,66.00
2019-06-15T17:56:29.623Z,67.00
2019-06-15T17:59:02.916Z,67.70
2019-06-15T18:01:36.457Z,68.40
2019-06-15T18:04:10.106Z,70.20
2019-06-15T18:06:43.175Z,69.90
2019-06-15T18:09:17.050Z,71.20
2019-06-15T18:11:53.737Z,71.10
2019-06-15T18:14:28.006Z,71.20
2019-06-15T18:17:01.308Z,71.60
2019-06-15T18:19:41.254Z,71.90
2019-06-15T18:22:16.788Z,72.70
2019-06-15T18:24:48.920Z,72.20
2019-06-15T18:27:22.041Z,72.70
2019-06-15T18:29:55.361Z,73.40
2019-06-15T18:32:28.684Z,73.60
2019-06-15T18:35:01.878Z,73.90
2019-06-15T18:37:37.064Z,73.70
2019-06-15T18:40:10.333Z,73.60
2019-06-15T18:42:46.368Z,73.90
2019-06-15T18:45:19.631Z,74.40
2019-06-15T18:47:53.203Z,75.20
2019-06-15T18:50:37.706Z,75.70
2019-06-15T18:53:10.999Z,76.30
2019-06-15T18:55:47.006Z,76.40
2019-06-15T18:58:19.136Z,77.40
2019-06-15T19:00:52.254Z,78.50
2019-06-15T19:03:27.778Z,79.20
2019-06-15T19:06:01.433Z,79.90
2019-06-15T19:08:34.762Z,81.00
2019-06-15T19:11:08.210Z,81.50
2019-06-15T19:13:41.250Z,81.60
2019-06-15T19:16:16.464Z,82.10
2019-06-15T19:18:49.375Z,82.40
2019-06-15T19:21:22.728Z,83.00
2019-06-15T19:23:56.539Z,83.80
2019-06-15T19:26:31.383Z,84.30
2019-06-15T19:29:06.529Z,85.00
2019-06-15T19:31:42.460Z,86.00
2019-06-15T19:34:16.731Z,87.10
2019-06-15T19:36:50.269Z,88.30
2019-06-15T19:39:22.902Z,89.30
2019-06-15T19:41:56.367Z,90.10
2019-06-15T19:44:32.495Z,90.70
2019-06-15T19:47:07.188Z,91.10
2019-06-15T19:49:40.513Z,91.30
2019-06-15T19:52:14.010Z,91.80
2019-06-15T19:54:47.380Z,92.40
2019-06-15T19:57:20.445Z,92.70
2019-06-15T19:59:56.074Z,93.30
2019-06-15T20:02:29.869Z,93.70
2019-06-15T20:05:03.934Z,94.20
2019-06-15T20:07:37.228Z,94.50
2019-06-15T20:10:11.550Z,95.00
2019-06-15T20:12:46.612Z,95.20
2019-06-15T20:15:22.086Z,95.40
2019-06-15T20:17:57.006Z,95.90
2019-06-15T20:20:30.305Z,96.00
2019-06-15T20:23:03.494Z,96.20
2019-06-15T20:25:39.740Z,96.30
2019-06-15T20:28:17.763Z,96.80
2019-06-15T20:30:57.104Z,97.40
2019-06-15T20:33:30.555Z,97.40
2019-06-15T20:36:06.975Z,97.80
2019-06-15T20:38:43.424Z,98.50
2019-06-15T20:41:26.972Z,98.60
2019-06-15T20:44:02.565Z,98.70
2019-06-15T20:46:41.041Z,98.80
2019-06-15T20:49:20.769Z,98.70
2019-06-15T20:51:56.632Z,99.20
2019-06-15T20:54:32.500Z,99.50
2019-06-15T20:57:08.383Z,99.90
2019-06-15T20:59:42.573Z,99.90
2019-06-15T21:02:21.223Z,99.90
2019-06-15T21:04:57.423Z,99.90
2019-06-15T21:07:32.720Z,99.90
2019-06-15T21:10:10.347Z,99.90
2019-06-15T21:12:47.099Z,99.90
2019-06-15T21:15:27.579Z,99.90
2019-06-15T21:18:06.790Z,99.90
2019-06-15T21:20:47.055Z,99.90
2019-06-15T21:23:26.852Z,99.90
2019-06-15T21:26:01.919Z,99.90
2019-06-15T21:28:40.962Z,99.90
2019-06-15T21:31:18.135Z,99.90
2019-06-15T21:33:56.001Z,99.90
2019-06-15T21:36:30.371Z,99.90
2019-06-15T21:39:07.060Z,99.90
2019-06-15T21:41:46.269Z,99.90
2019-06-15T21:44:21.739Z,99.90
2019-06-15T21:46:56.506Z,99.90
2019-06-15T21:49:36.641Z,99.90
2019-06-15T21:52:16.541Z,99.90
2019-06-15T21:54:55.932Z,99.90
2019-06-15T21:57:32.535Z,99.90
2019-06-15T22:00:17.457Z,99.90
2019-06-15T22:02:56.142Z,99.90
2019-06-15T22:05:36.866Z,99.90
2019-06-15T22:08:17.063Z,99.90
2019-06-15T22:10:56.358Z,99.90
2019-06-15T22:13:31.324Z,99.90
2019-06-15T22:16:13.836Z,99.90
2019-06-15T22:18:50.996Z,99.90
2019-06-15T22:21:28.306Z,99.90
2019-06-15T22:24:06.847Z,99.90
2019-06-15T22:26:42.229Z,99.90
2019-06-15T22:29:21.520Z,99.90
2019-06-15T22:31:57.113Z,99.90
2019-06-15T22:34:36.284Z,99.90
2019-06-15T22:37:14.495Z,99.90
2019-06-15T22:39:51.431Z,99.90
2019-06-15T22:42:26.633Z,99.90
2019-06-15T22:45:02.130Z,99.90
2019-06-15T22:47:46.603Z,99.90
2019-06-15T22:50:22.570Z,99.90
2019-06-15T22:53:06.354Z,99.90
2019-06-15T22:55:41.111Z,99.90
2019-06-15T22:58:21.690Z,99.90
2019-06-15T23:00:56.775Z,99.90
2019-06-15T23:03:32.858Z,99.90
2019-06-15T23:06:13.172Z,99.90
2019-06-15T23:08:50.140Z,99.90
2019-06-15T23:11:28.744Z,99.90
2019-06-15T23:14:07.377Z,99.90
2019-06-15T23:16:47.710Z,99.90
2019-06-15T23:19:26.188Z,99.90
2019-06-15T23:22:07.637Z,99.90
2019-06-15T23:24:46.829Z,99.90
2019-06-15T23:27:26.655Z,99.90
2019-06-15T23:30:06.585Z,99.90
2019-06-15T23:32:42.976Z,99.90
2019-06-15T23:35:26.959Z,99.90
2019-06-15T23:38:06.527Z,99.90
2019-06-15T23:40:43.575Z,99.90
2019-06-15T23:43:22.402Z,99.90
2019-06-15T23:45:59.544Z,99.90
2019-06-15T23:48:38.982Z,99.90
2019-06-15T23:51:20.638Z,99.90
2019-06-15T23:53:58.615Z,99.90
2019-06-15T23:56:36.885Z,99.90
2019-06-15T23:59:26.302Z,99.90
